sensor_id;sensor_type;location;lat;lon;timestamp;temperature;humidity
3408;DHT22;1717;50.240;8.406;2023-07-20T00:00:00;20.00;70.20
3408;DHT22;1717;50.240;8.406;2023-07-20T00:02:26;19.90;70.30
3408;DHT22;1717;50.240;8.406;2023-07-20T00:04:53;19.90;70.50
3408;DHT22;1717;50.240;8.406;2023-07-20T00:07:20;19.80;70.60
3408;DHT22;1717;50.240;8.406;2023-07-20T00:09:47;19.80;70.80
3408;DHT22;1717;50.240;8.406;2023-07-20T00:12:15;19.80;71.10
3408;DHT22;1717;50.240;8.406;2023-07-20T00:14:42;19.70;71.10
3408;DHT22;1717;50.240;8.406;2023-07-20T00:17:09;19.70;71.10
3408;DHT22;1717;50.240;8.406;2023-07-20T00:19:36;19.70;71.40
3408;DHT22;1717;50.240;8.406;2023-07-20T00:22:03;19.70;71.60
3408;DHT22;1717;50.240;8.406;2023-07-20T00:24:30;19.70;72.10
3408;DHT22;1717;50.240;8.406;2023-07-20T00:26:58;19.60;72.50
3408;DHT22;1717;50.240;8.406;2023-07-20T00:29:27;19.50;72.40
3408;DHT22;1717;50.240;8.406;2023-07-20T00:31:54;19.50;73.00
3408;DHT22;1717;50.240;8.406;2023-07-20T00:34:21;19.30;73.00
3408;DHT22;1717;50.240;8.406;2023-07-20T00:36:48;19.30;73.40
3408;DHT22;1717;50.240;8.406;2023-07-20T00:39:15;19.30;73.30
3408;DHT22;1717;50.240;8.406;2023-07-20T00:41:43;19.30;73.50
3408;DHT22;1717;50.240;8.406;2023-07-20T00:44:10;19.30;73.70
3408;DHT22;1717;50.240;8.406;2023-07-20T00:46:38;19.20;74.20
3408;DHT22;1717;50.240;8.406;2023-07-20T00:49:07;19.20;74.20
3408;DHT22;1717;50.240;8.406;2023-07-20T00:51:34;19.20;74.30
3408;DHT22;1717;50.240;8.406;2023-07-20T00:54:01;19.20;74.90
3408;DHT22;1717;50.240;8.406;2023-07-20T00:56:28;19.10;74.50
3408;DHT22;1717;50.240;8.406;2023-07-20T00:58:55;19.20;74.80
3408;DHT22;1717;50.240;8.406;2023-07-20T01:01:22;19.00;74.80
3408;DHT22;1717;50.240;8.406;2023-07-20T01:03:50;19.00;75.10
3408;DHT22;1717;50.240;8.406;2023-07-20T01:06:26;19.00;75.40
3408;DHT22;1717;50.240;8.406;2023-07-20T01:09:02;19.00;75.30
3408;DHT22;1717;50.240;8.406;2023-07-20T01:11:38;18.90;75.40
3408;DHT22;1717;50.240;8.406;2023-07-20T01:14:05;18.90;75.70
3408;DHT22;1717;50.240;8.406;2023-07-20T01:16:33;18.90;75.80
3408;DHT22;1717;50.240;8.406;2023-07-20T01:19:01;18.90;75.90
3408;DHT22;1717;50.240;8.406;2023-07-20T01:21:33;18.80;75.90
3408;DHT22;1717;50.240;8.406;2023-07-20T01:24:27;18.80;76.00
3408;DHT22;1717;50.240;8.406;2023-07-20T01:30:08;18.80;76.20
3408;DHT22;1717;50.240;8.406;2023-07-20T01:32:42;18.80;76.10
3408;DHT22;1717;50.240;8.406;2023-07-20T01:35:11;18.70;76.20
3408;DHT22;1717;50.240;8.406;2023-07-20T01:37:42;18.80;76.20
3408;DHT22;1717;50.240;8.406;2023-07-20T01:40:19;18.80;76.60
3408;DHT22;1717;50.240;8.406;2023-07-20T01:43:02;18.60;76.30
3408;DHT22;1717;50.240;8.406;2023-07-20T01:45:31;18.70;76.60
3408;DHT22;1717;50.240;8.406;2023-07-20T01:48:07;18.80;77.10
3408;DHT22;1717;50.240;8.406;2023-07-20T01:50:43;18.70;76.90
3408;DHT22;1717;50.240;8.406;2023-07-20T01:53:14;18.70;77.30
3408;DHT22;1717;50.240;8.406;2023-07-20T01:55:45;18.70;77.40
3408;DHT22;1717;50.240;8.406;2023-07-20T01:58:13;18.60;77.30
3408;DHT22;1717;50.240;8.406;2023-07-20T02:00:40;18.60;78.10
3408;DHT22;1717;50.240;8.406;2023-07-20T02:03:12;18.50;78.20
3408;DHT22;1717;50.240;8.406;2023-07-20T02:05:44;18.60;79.00
3408;DHT22;1717;50.240;8.406;2023-07-20T02:08:18;18.40;79.00
3408;DHT22;1717;50.240;8.406;2023-07-20T02:10:47;18.40;79.20
3408;DHT22;1717;50.240;8.406;2023-07-20T02:13:19;18.20;79.10
3408;DHT22;1717;50.240;8.406;2023-07-20T02:15:46;18.30;79.50
3408;DHT22;1717;50.240;8.406;2023-07-20T02:18:19;18.40;79.70
3408;DHT22;1717;50.240;8.406;2023-07-20T02:20:52;18.40;80.00
3408;DHT22;1717;50.240;8.406;2023-07-20T02:23:24;18.50;80.40
3408;DHT22;1717;50.240;8.406;2023-07-20T02:25:53;18.30;80.60
3408;DHT22;1717;50.240;8.406;2023-07-20T02:28:30;18.30;80.60
3408;DHT22;1717;50.240;8.406;2023-07-20T02:31:05;18.30;80.80
3408;DHT22;1717;50.240;8.406;2023-07-20T02:33:44;18.30;81.00
3408;DHT22;1717;50.240;8.406;2023-07-20T02:36:13;18.30;81.50
3408;DHT22;1717;50.240;8.406;2023-07-20T02:38:47;18.20;81.30
3408;DHT22;1717;50.240;8.406;2023-07-20T02:41:18;18.30;81.50
3408;DHT22;1717;50.240;8.406;2023-07-20T02:43:49;18.40;81.50
3408;DHT22;1717;50.240;8.406;2023-07-20T02:46:23;18.40;81.50
3408;DHT22;1717;50.240;8.406;2023-07-20T02:49:05;18.50;81.70
3408;DHT22;1717;50.240;8.406;2023-07-20T02:51:38;18.40;81.90
3408;DHT22;1717;50.240;8.406;2023-07-20T02:54:07;18.50;81.70
3408;DHT22;1717;50.240;8.406;2023-07-20T02:56:46;18.50;82.50
3408;DHT22;1717;50.240;8.406;2023-07-20T02:59:19;18.40;82.70
3408;DHT22;1717;50.240;8.406;2023-07-20T03:02:04;18.50;82.40
3408;DHT22;1717;50.240;8.406;2023-07-20T03:09:59;18.70;82.30
3408;DHT22;1717;50.240;8.406;2023-07-20T03:12:26;18.70;82.10
3408;DHT22;1717;50.240;8.406;2023-07-20T03:14:53;18.70;81.90
3408;DHT22;1717;50.240;8.406;2023-07-20T03:17:22;18.70;81.90
3408;DHT22;1717;50.240;8.406;2023-07-20T03:19:49;18.70;81.90
3408;DHT22;1717;50.240;8.406;2023-07-20T03:22:16;18.70;81.90
3408;DHT22;1717;50.240;8.406;2023-07-20T03:24:43;18.70;81.90
3408;DHT22;1717;50.240;8.406;2023-07-20T03:27:11;18.90;82.10
3408;DHT22;1717;50.240;8.406;2023-07-20T03:29:38;18.70;81.70
3408;DHT22;1717;50.240;8.406;2023-07-20T03:32:05;18.70;82.00
3408;DHT22;1717;50.240;8.406;2023-07-20T03:34:32;18.60;82.00
3408;DHT22;1717;50.240;8.406;2023-07-20T03:36:59;18.50;82.30
3408;DHT22;1717;50.240;8.406;2023-07-20T03:39:26;18.50;82.20
3408;DHT22;1717;50.240;8.406;2023-07-20T03:41:53;18.40;82.30
3408;DHT22;1717;50.240;8.406;2023-07-20T03:44:24;18.40;82.40
3408;DHT22;1717;50.240;8.406;2023-07-20T03:46:51;18.40;82.60
3408;DHT22;1717;50.240;8.406;2023-07-20T03:49:17;18.40;82.70
3408;DHT22;1717;50.240;8.406;2023-07-20T03:51:44;18.40;82.80
3408;DHT22;1717;50.240;8.406;2023-07-20T03:54:11;18.30;82.90
3408;DHT22;1717;50.240;8.406;2023-07-20T03:56:41;18.30;83.50
3408;DHT22;1717;50.240;8.406;2023-07-20T03:59:07;18.30;83.80
3408;DHT22;1717;50.240;8.406;2023-07-20T04:01:36;18.20;83.80
3408;DHT22;1717;50.240;8.406;2023-07-20T04:04:07;18.10;84.20
3408;DHT22;1717;50.240;8.406;2023-07-20T04:06:34;18.00;84.40
3408;DHT22;1717;50.240;8.406;2023-07-20T04:09:01;18.10;85.10
3408;DHT22;1717;50.240;8.406;2023-07-20T04:11:28;18.00;85.00
3408;DHT22;1717;50.240;8.406;2023-07-20T04:13:55;18.00;85.20
3408;DHT22;1717;50.240;8.406;2023-07-20T04:16:21;18.00;85.40
3408;DHT22;1717;50.240;8.406;2023-07-20T04:18:54;18.00;85.90
3408;DHT22;1717;50.240;8.406;2023-07-20T04:21:21;17.90;86.00
3408;DHT22;1717;50.240;8.406;2023-07-20T04:23:51;17.80;86.70
3408;DHT22;1717;50.240;8.406;2023-07-20T04:26:18;17.70;87.20
3408;DHT22;1717;50.240;8.406;2023-07-20T04:28:46;17.60;87.90
3408;DHT22;1717;50.240;8.406;2023-07-20T04:31:15;17.60;88.30
3408;DHT22;1717;50.240;8.406;2023-07-20T04:33:42;17.70;88.40
3408;DHT22;1717;50.240;8.406;2023-07-20T04:36:10;17.70;88.50
3408;DHT22;1717;50.240;8.406;2023-07-20T04:38:38;17.70;88.50
3408;DHT22;1717;50.240;8.406;2023-07-20T04:41:04;17.70;88.30
3408;DHT22;1717;50.240;8.406;2023-07-20T04:43:31;17.80;88.50
3408;DHT22;1717;50.240;8.406;2023-07-20T04:45:58;17.70;88.30
3408;DHT22;1717;50.240;8.406;2023-07-20T04:48:25;17.80;88.40
3408;DHT22;1717;50.240;8.406;2023-07-20T04:50:52;17.80;88.60
3408;DHT22;1717;50.240;8.406;2023-07-20T04:53:20;17.80;88.60
3408;DHT22;1717;50.240;8.406;2023-07-20T04:55:48;17.80;88.80
3408;DHT22;1717;50.240;8.406;2023-07-20T04:58:18;17.90;89.00
3408;DHT22;1717;50.240;8.406;2023-07-20T05:00:45;17.90;89.00
3408;DHT22;1717;50.240;8.406;2023-07-20T05:03:11;17.90;88.80
3408;DHT22;1717;50.240;8.406;2023-07-20T05:05:38;17.90;89.10
3408;DHT22;1717;50.240;8.406;2023-07-20T05:08:05;18.00;90.00
3408;DHT22;1717;50.240;8.406;2023-07-20T05:10:34;17.90;89.10
3408;DHT22;1717;50.240;8.406;2023-07-20T05:13:03;17.90;88.90
3408;DHT22;1717;50.240;8.406;2023-07-20T05:15:32;17.80;88.70
3408;DHT22;1717;50.240;8.406;2023-07-20T05:18:02;18.00;89.00
3408;DHT22;1717;50.240;8.406;2023-07-20T05:20:29;18.00;89.10
3408;DHT22;1717;50.240;8.406;2023-07-20T05:22:57;18.00;88.90
3408;DHT22;1717;50.240;8.406;2023-07-20T05:25:24;18.00;89.00
3408;DHT22;1717;50.240;8.406;2023-07-20T05:27:55;18.20;89.50
3408;DHT22;1717;50.240;8.406;2023-07-20T05:30:22;18.00;89.50
3408;DHT22;1717;50.240;8.406;2023-07-20T05:32:48;18.00;89.70
3408;DHT22;1717;50.240;8.406;2023-07-20T05:35:17;18.00;89.50
3408;DHT22;1717;50.240;8.406;2023-07-20T05:37:44;18.00;89.70
3408;DHT22;1717;50.240;8.406;2023-07-20T05:40:12;18.00;90.00
3408;DHT22;1717;50.240;8.406;2023-07-20T05:42:39;18.00;90.20
3408;DHT22;1717;50.240;8.406;2023-07-20T05:45:10;18.00;90.50
3408;DHT22;1717;50.240;8.406;2023-07-20T05:47:37;18.00;90.50
3408;DHT22;1717;50.240;8.406;2023-07-20T05:50:07;18.00;90.50
3408;DHT22;1717;50.240;8.406;2023-07-20T05:52:33;18.10;90.50
3408;DHT22;1717;50.240;8.406;2023-07-20T05:55:00;18.10;90.50
3408;DHT22;1717;50.240;8.406;2023-07-20T05:57:28;18.20;90.60
3408;DHT22;1717;50.240;8.406;2023-07-20T05:59:55;18.20;90.60
3408;DHT22;1717;50.240;8.406;2023-07-20T06:02:23;18.30;90.50
3408;DHT22;1717;50.240;8.406;2023-07-20T06:04:50;18.30;90.50
3408;DHT22;1717;50.240;8.406;2023-07-20T06:07:20;18.40;90.50
3408;DHT22;1717;50.240;8.406;2023-07-20T06:09:47;18.40;90.40
3408;DHT22;1717;50.240;8.406;2023-07-20T06:12:14;18.50;90.30
3408;DHT22;1717;50.240;8.406;2023-07-20T06:14:40;18.60;90.30
3408;DHT22;1717;50.240;8.406;2023-07-20T06:17:07;18.60;90.70
3408;DHT22;1717;50.240;8.406;2023-07-20T06:19:35;18.70;90.20
3408;DHT22;1717;50.240;8.406;2023-07-20T06:22:03;18.70;90.10
3408;DHT22;1717;50.240;8.406;2023-07-20T06:24:31;18.80;90.20
3408;DHT22;1717;50.240;8.406;2023-07-20T06:27:01;18.80;90.20
3408;DHT22;1717;50.240;8.406;2023-07-20T06:29:28;18.90;90.10
3408;DHT22;1717;50.240;8.406;2023-07-20T06:31:55;18.90;90.00
3408;DHT22;1717;50.240;8.406;2023-07-20T06:34:24;19.00;90.00
3408;DHT22;1717;50.240;8.406;2023-07-20T06:36:54;19.10;89.80
3408;DHT22;1717;50.240;8.406;2023-07-20T06:39:21;19.10;89.90
3408;DHT22;1717;50.240;8.406;2023-07-20T06:41:49;19.20;89.70
3408;DHT22;1717;50.240;8.406;2023-07-20T06:44:15;19.20;90.00
3408;DHT22;1717;50.240;8.406;2023-07-20T06:46:42;19.20;89.60
3408;DHT22;1717;50.240;8.406;2023-07-20T06:49:09;19.30;89.40
3408;DHT22;1717;50.240;8.406;2023-07-20T06:51:36;19.40;89.10
3408;DHT22;1717;50.240;8.406;2023-07-20T06:54:08;19.40;89.10
3408;DHT22;1717;50.240;8.406;2023-07-20T06:56:35;19.50;89.00
3408;DHT22;1717;50.240;8.406;2023-07-20T06:59:02;19.50;88.60
3408;DHT22;1717;50.240;8.406;2023-07-20T07:01:32;19.60;88.30
3408;DHT22;1717;50.240;8.406;2023-07-20T07:04:23;19.60;88.00
3408;DHT22;1717;50.240;8.406;2023-07-20T07:07:00;19.70;87.80
3408;DHT22;1717;50.240;8.406;2023-07-20T07:09:35;19.80;87.60
3408;DHT22;1717;50.240;8.406;2023-07-20T07:12:08;19.80;87.20
3408;DHT22;1717;50.240;8.406;2023-07-20T07:14:43;19.90;86.60
3408;DHT22;1717;50.240;8.406;2023-07-20T07:17:20;19.90;86.10
3408;DHT22;1717;50.240;8.406;2023-07-20T07:19:52;20.00;85.80
3408;DHT22;1717;50.240;8.406;2023-07-20T07:22:26;20.00;85.40
3408;DHT22;1717;50.240;8.406;2023-07-20T07:25:00;20.10;85.10
3408;DHT22;1717;50.240;8.406;2023-07-20T07:27:47;20.10;84.80
3408;DHT22;1717;50.240;8.406;2023-07-20T07:30:21;20.10;84.70
3408;DHT22;1717;50.240;8.406;2023-07-20T07:32:59;20.10;84.30
3408;DHT22;1717;50.240;8.406;2023-07-20T07:35:30;20.20;84.10
3408;DHT22;1717;50.240;8.406;2023-07-20T07:38:02;20.20;83.90
3408;DHT22;1717;50.240;8.406;2023-07-20T07:40:33;20.20;83.30
3408;DHT22;1717;50.240;8.406;2023-07-20T07:43:09;20.20;83.00
3408;DHT22;1717;50.240;8.406;2023-07-20T07:45:39;20.30;83.00
3408;DHT22;1717;50.240;8.406;2023-07-20T07:48:09;20.30;82.60
3408;DHT22;1717;50.240;8.406;2023-07-20T07:50:37;20.40;82.00
3408;DHT22;1717;50.240;8.406;2023-07-20T07:53:06;20.40;81.80
3408;DHT22;1717;50.240;8.406;2023-07-20T07:55:36;20.50;81.50
3408;DHT22;1717;50.240;8.406;2023-07-20T07:58:05;20.50;81.10
3408;DHT22;1717;50.240;8.406;2023-07-20T08:00:32;20.60;80.90
3408;DHT22;1717;50.240;8.406;2023-07-20T08:03:02;20.60;80.50
3408;DHT22;1717;50.240;8.406;2023-07-20T08:05:34;20.70;80.30
3408;DHT22;1717;50.240;8.406;2023-07-20T08:08:13;20.70;80.10
3408;DHT22;1717;50.240;8.406;2023-07-20T08:10:49;20.70;79.70
3408;DHT22;1717;50.240;8.406;2023-07-20T08:13:22;20.80;79.70
3408;DHT22;1717;50.240;8.406;2023-07-20T08:15:53;20.90;79.40
3408;DHT22;1717;50.240;8.406;2023-07-20T08:18:28;20.90;79.20
3408;DHT22;1717;50.240;8.406;2023-07-20T08:21:02;21.00;79.00
3408;DHT22;1717;50.240;8.406;2023-07-20T08:23:49;20.90;78.60
3408;DHT22;1717;50.240;8.406;2023-07-20T08:26:28;21.10;78.80
3408;DHT22;1717;50.240;8.406;2023-07-20T08:28:57;21.10;78.30
3408;DHT22;1717;50.240;8.406;2023-07-20T08:31:27;21.20;78.00
3408;DHT22;1717;50.240;8.406;2023-07-20T08:33:54;21.20;77.60
3408;DHT22;1717;50.240;8.406;2023-07-20T08:36:22;21.30;77.10
3408;DHT22;1717;50.240;8.406;2023-07-20T08:38:49;21.40;76.50
3408;DHT22;1717;50.240;8.406;2023-07-20T08:41:16;21.50;76.50
3408;DHT22;1717;50.240;8.406;2023-07-20T08:43:46;21.60;76.10
3408;DHT22;1717;50.240;8.406;2023-07-20T08:46:13;21.60;75.90
3408;DHT22;1717;50.240;8.406;2023-07-20T08:48:42;21.70;75.70
3408;DHT22;1717;50.240;8.406;2023-07-20T08:51:10;21.80;75.00
3408;DHT22;1717;50.240;8.406;2023-07-20T08:53:41;21.80;74.50
3408;DHT22;1717;50.240;8.406;2023-07-20T08:56:09;21.90;74.20
3408;DHT22;1717;50.240;8.406;2023-07-20T08:58:37;22.00;73.40
3408;DHT22;1717;50.240;8.406;2023-07-20T09:01:07;22.10;72.80
3408;DHT22;1717;50.240;8.406;2023-07-20T09:03:37;22.20;72.10
3408;DHT22;1717;50.240;8.406;2023-07-20T09:06:07;22.30;71.10
3408;DHT22;1717;50.240;8.406;2023-07-20T09:08:38;22.30;70.70
3408;DHT22;1717;50.240;8.406;2023-07-20T09:11:09;22.30;70.70
3408;DHT22;1717;50.240;8.406;2023-07-20T09:13:40;22.30;70.60
3408;DHT22;1717;50.240;8.406;2023-07-20T09:16:09;22.40;70.70
3408;DHT22;1717;50.240;8.406;2023-07-20T09:18:44;22.40;69.80
3408;DHT22;1717;50.240;8.406;2023-07-20T09:21:11;22.40;69.90
3408;DHT22;1717;50.240;8.406;2023-07-20T09:23:38;22.50;69.20
3408;DHT22;1717;50.240;8.406;2023-07-20T09:26:12;22.60;68.60
3408;DHT22;1717;50.240;8.406;2023-07-20T09:28:43;22.70;67.50
3408;DHT22;1717;50.240;8.406;2023-07-20T09:31:17;22.80;67.10
3408;DHT22;1717;50.240;8.406;2023-07-20T09:33:44;22.90;66.20
3408;DHT22;1717;50.240;8.406;2023-07-20T09:36:15;22.90;65.80
3408;DHT22;1717;50.240;8.406;2023-07-20T09:38:44;23.00;65.50
3408;DHT22;1717;50.240;8.406;2023-07-20T09:41:13;23.00;64.60
3408;DHT22;1717;50.240;8.406;2023-07-20T09:43:41;23.10;64.70
3408;DHT22;1717;50.240;8.406;2023-07-20T09:46:08;23.10;64.80
3408;DHT22;1717;50.240;8.406;2023-07-20T09:48:36;23.10;64.40
3408;DHT22;1717;50.240;8.406;2023-07-20T09:51:05;23.20;64.50
3408;DHT22;1717;50.240;8.406;2023-07-20T09:53:34;23.10;64.10
3408;DHT22;1717;50.240;8.406;2023-07-20T09:56:02;23.20;64.00
3408;DHT22;1717;50.240;8.406;2023-07-20T09:58:32;23.20;63.70
3408;DHT22;1717;50.240;8.406;2023-07-20T10:01:03;23.20;64.20
3408;DHT22;1717;50.240;8.406;2023-07-20T10:03:33;23.20;64.00
3408;DHT22;1717;50.240;8.406;2023-07-20T10:06:07;23.20;63.60
3408;DHT22;1717;50.240;8.406;2023-07-20T10:08:38;23.30;63.70
3408;DHT22;1717;50.240;8.406;2023-07-20T10:11:08;23.40;64.00
3408;DHT22;1717;50.240;8.406;2023-07-20T10:13:38;23.50;63.40
3408;DHT22;1717;50.240;8.406;2023-07-20T10:16:09;23.60;62.90
3408;DHT22;1717;50.240;8.406;2023-07-20T10:18:42;23.70;62.50
3408;DHT22;1717;50.240;8.406;2023-07-20T10:21:17;23.70;61.90
3408;DHT22;1717;50.240;8.406;2023-07-20T10:23:45;23.70;61.50
3408;DHT22;1717;50.240;8.406;2023-07-20T10:26:14;23.70;61.00
3408;DHT22;1717;50.240;8.406;2023-07-20T10:28:41;23.70;60.80
3408;DHT22;1717;50.240;8.406;2023-07-20T10:31:11;23.70;61.20
3408;DHT22;1717;50.240;8.406;2023-07-20T10:33:39;23.70;61.40
3408;DHT22;1717;50.240;8.406;2023-07-20T10:36:07;23.80;61.10
3408;DHT22;1717;50.240;8.406;2023-07-20T10:38:42;23.80;59.90
3408;DHT22;1717;50.240;8.406;2023-07-20T10:41:19;23.90;60.00
3408;DHT22;1717;50.240;8.406;2023-07-20T10:43:47;23.90;59.90
3408;DHT22;1717;50.240;8.406;2023-07-20T10:46:14;24.00;59.90
3408;DHT22;1717;50.240;8.406;2023-07-20T10:49:01;24.00;59.20
3408;DHT22;1717;50.240;8.406;2023-07-20T10:51:31;24.00;58.90
3408;DHT22;1717;50.240;8.406;2023-07-20T10:54:08;24.00;58.90
3408;DHT22;1717;50.240;8.406;2023-07-20T10:56:35;24.10;58.70
3408;DHT22;1717;50.240;8.406;2023-07-20T10:59:18;24.30;58.20
3408;DHT22;1717;50.240;8.406;2023-07-20T11:01:46;24.30;57.60
3408;DHT22;1717;50.240;8.406;2023-07-20T11:04:15;24.30;57.50
3408;DHT22;1717;50.240;8.406;2023-07-20T11:06:43;24.40;57.20
3408;DHT22;1717;50.240;8.406;2023-07-20T11:09:15;24.50;57.10
3408;DHT22;1717;50.240;8.406;2023-07-20T11:11:46;24.50;56.10
3408;DHT22;1717;50.240;8.406;2023-07-20T11:14:25;24.50;56.10
3408;DHT22;1717;50.240;8.406;2023-07-20T11:17:11;24.60;56.30
3408;DHT22;1717;50.240;8.406;2023-07-20T11:19:39;24.60;56.10
3408;DHT22;1717;50.240;8.406;2023-07-20T11:22:07;24.60;55.60
3408;DHT22;1717;50.240;8.406;2023-07-20T11:24:39;24.60;55.20
3408;DHT22;1717;50.240;8.406;2023-07-20T11:27:06;24.60;55.20
3408;DHT22;1717;50.240;8.406;2023-07-20T11:29:40;24.80;55.30
3408;DHT22;1717;50.240;8.406;2023-07-20T11:32:08;24.80;54.10
3408;DHT22;1717;50.240;8.406;2023-07-20T11:34:39;24.80;54.00
3408;DHT22;1717;50.240;8.406;2023-07-20T11:37:12;24.90;54.20
3408;DHT22;1717;50.240;8.406;2023-07-20T11:42:26;25.00;53.00
3408;DHT22;1717;50.240;8.406;2023-07-20T11:44:58;25.10;53.00
3408;DHT22;1717;50.240;8.406;2023-07-20T11:47:30;25.20;52.30
3408;DHT22;1717;50.240;8.406;2023-07-20T11:50:05;25.30;52.30
3408;DHT22;1717;50.240;8.406;2023-07-20T11:52:33;25.40;52.20
3408;DHT22;1717;50.240;8.406;2023-07-20T11:55:03;25.40;52.10
3408;DHT22;1717;50.240;8.406;2023-07-20T11:57:32;25.50;51.70
3408;DHT22;1717;50.240;8.406;2023-07-20T12:00:05;25.50;51.30
3408;DHT22;1717;50.240;8.406;2023-07-20T12:02:37;25.60;50.80
3408;DHT22;1717;50.240;8.406;2023-07-20T12:05:05;25.60;49.50
3408;DHT22;1717;50.240;8.406;2023-07-20T12:07:36;25.70;49.60
3408;DHT22;1717;50.240;8.406;2023-07-20T12:10:11;25.70;49.40
3408;DHT22;1717;50.240;8.406;2023-07-20T12:12:39;25.70;49.50
3408;DHT22;1717;50.240;8.406;2023-07-20T12:15:14;25.80;49.30
3408;DHT22;1717;50.240;8.406;2023-07-20T12:17:50;25.90;49.00
3408;DHT22;1717;50.240;8.406;2023-07-20T12:20:26;25.90;48.40
3408;DHT22;1717;50.240;8.406;2023-07-20T12:22:56;26.00;48.40
3408;DHT22;1717;50.240;8.406;2023-07-20T12:25:41;26.10;48.70
3408;DHT22;1717;50.240;8.406;2023-07-20T12:28:10;26.10;48.50
3408;DHT22;1717;50.240;8.406;2023-07-20T12:30:38;26.10;48.30
3408;DHT22;1717;50.240;8.406;2023-07-20T12:33:07;26.10;48.00
3408;DHT22;1717;50.240;8.406;2023-07-20T12:35:37;26.10;47.60
3408;DHT22;1717;50.240;8.406;2023-07-20T12:38:09;26.00;47.50
3408;DHT22;1717;50.240;8.406;2023-07-20T12:40:37;26.00;46.80
3408;DHT22;1717;50.240;8.406;2023-07-20T12:43:04;26.10;47.00
3408;DHT22;1717;50.240;8.406;2023-07-20T12:45:31;26.10;46.20
3408;DHT22;1717;50.240;8.406;2023-07-20T12:47:58;26.20;46.30
3408;DHT22;1717;50.240;8.406;2023-07-20T12:50:27;26.30;46.70
3408;DHT22;1717;50.240;8.406;2023-07-20T12:52:56;26.40;46.30
3408;DHT22;1717;50.240;8.406;2023-07-20T12:55:23;26.50;46.00
3408;DHT22;1717;50.240;8.406;2023-07-20T12:57:51;26.60;45.70
3408;DHT22;1717;50.240;8.406;2023-07-20T13:00:21;26.70;45.80
3408;DHT22;1717;50.240;8.406;2023-07-20T13:02:49;26.80;45.60
3408;DHT22;1717;50.240;8.406;2023-07-20T13:05:16;26.80;45.40
3408;DHT22;1717;50.240;8.406;2023-07-20T13:07:43;26.80;45.20
3408;DHT22;1717;50.240;8.406;2023-07-20T13:10:13;26.80;44.80
3408;DHT22;1717;50.240;8.406;2023-07-20T13:12:43;26.80;44.90
3408;DHT22;1717;50.240;8.406;2023-07-20T13:15:11;26.80;45.00
3408;DHT22;1717;50.240;8.406;2023-07-20T13:17:39;26.80;44.80
3408;DHT22;1717;50.240;8.406;2023-07-20T13:20:08;26.70;44.30
3408;DHT22;1717;50.240;8.406;2023-07-20T13:22:36;26.70;44.30
3408;DHT22;1717;50.240;8.406;2023-07-20T13:25:04;26.60;44.40
3408;DHT22;1717;50.240;8.406;2023-07-20T13:27:31;26.60;44.40
3408;DHT22;1717;50.240;8.406;2023-07-20T13:29:58;26.60;44.20
3408;DHT22;1717;50.240;8.406;2023-07-20T13:32:33;26.50;44.20
3408;DHT22;1717;50.240;8.406;2023-07-20T13:35:03;26.50;44.40
3408;DHT22;1717;50.240;8.406;2023-07-20T13:37:30;26.40;44.60
3408;DHT22;1717;50.240;8.406;2023-07-20T13:39:57;26.40;44.50
3408;DHT22;1717;50.240;8.406;2023-07-20T13:42:24;26.40;44.60
3408;DHT22;1717;50.240;8.406;2023-07-20T13:44:53;26.40;44.70
3408;DHT22;1717;50.240;8.406;2023-07-20T13:47:22;26.30;44.70
3408;DHT22;1717;50.240;8.406;2023-07-20T13:49:50;26.30;44.50
3408;DHT22;1717;50.240;8.406;2023-07-20T13:52:17;26.20;44.50
3408;DHT22;1717;50.240;8.406;2023-07-20T13:54:47;26.20;44.30
3408;DHT22;1717;50.240;8.406;2023-07-20T13:57:19;26.10;44.30
3408;DHT22;1717;50.240;8.406;2023-07-20T13:59:46;26.10;44.30
3408;DHT22;1717;50.240;8.406;2023-07-20T14:02:14;26.00;44.40
3408;DHT22;1717;50.240;8.406;2023-07-20T14:04:41;25.90;44.60
3408;DHT22;1717;50.240;8.406;2023-07-20T14:07:12;25.80;44.80
3408;DHT22;1717;50.240;8.406;2023-07-20T14:09:39;25.90;45.00
3408;DHT22;1717;50.240;8.406;2023-07-20T14:12:09;25.80;45.00
3408;DHT22;1717;50.240;8.406;2023-07-20T14:14:38;25.80;44.80
3408;DHT22;1717;50.240;8.406;2023-07-20T14:17:06;25.70;45.00
3408;DHT22;1717;50.240;8.406;2023-07-20T14:19:36;25.70;45.00
3408;DHT22;1717;50.240;8.406;2023-07-20T14:22:09;25.70;44.90
3408;DHT22;1717;50.240;8.406;2023-07-20T14:24:37;25.60;45.00
3408;DHT22;1717;50.240;8.406;2023-07-20T14:27:09;25.60;45.10
3408;DHT22;1717;50.240;8.406;2023-07-20T14:29:37;25.60;45.10
3408;DHT22;1717;50.240;8.406;2023-07-20T14:32:05;25.60;45.10
3408;DHT22;1717;50.240;8.406;2023-07-20T14:34:37;25.60;45.30
3408;DHT22;1717;50.240;8.406;2023-07-20T14:37:09;25.60;45.50
3408;DHT22;1717;50.240;8.406;2023-07-20T14:39:37;25.60;45.60
3408;DHT22;1717;50.240;8.406;2023-07-20T14:42:04;25.60;45.70
3408;DHT22;1717;50.240;8.406;2023-07-20T14:44:33;25.60;45.80
3408;DHT22;1717;50.240;8.406;2023-07-20T14:47:00;25.60;45.90
3408;DHT22;1717;50.240;8.406;2023-07-20T14:49:27;25.60;45.90
3408;DHT22;1717;50.240;8.406;2023-07-20T14:51:56;25.60;46.10
3408;DHT22;1717;50.240;8.406;2023-07-20T14:54:22;25.60;46.10
3408;DHT22;1717;50.240;8.406;2023-07-20T14:56:51;25.70;46.00
3408;DHT22;1717;50.240;8.406;2023-07-20T14:59:19;25.70;46.00
3408;DHT22;1717;50.240;8.406;2023-07-20T15:01:50;25.70;46.00
3408;DHT22;1717;50.240;8.406;2023-07-20T15:04:16;25.80;46.00
3408;DHT22;1717;50.240;8.406;2023-07-20T15:06:43;25.90;45.90
3408;DHT22;1717;50.240;8.406;2023-07-20T15:09:10;26.00;45.80
3408;DHT22;1717;50.240;8.406;2023-07-20T15:11:38;26.10;45.60
3408;DHT22;1717;50.240;8.406;2023-07-20T15:14:06;26.20;45.20
3408;DHT22;1717;50.240;8.406;2023-07-20T15:16:36;26.30;45.00
3408;DHT22;1717;50.240;8.406;2023-07-20T15:19:03;26.40;44.80
3408;DHT22;1717;50.240;8.406;2023-07-20T15:21:30;26.50;44.80
3408;DHT22;1717;50.240;8.406;2023-07-20T15:23:58;26.60;44.50
3408;DHT22;1717;50.240;8.406;2023-07-20T15:26:28;26.70;44.30
3408;DHT22;1717;50.240;8.406;2023-07-20T15:28:59;26.80;44.00
3408;DHT22;1717;50.240;8.406;2023-07-20T15:31:27;26.80;43.60
3408;DHT22;1717;50.240;8.406;2023-07-20T15:33:56;27.00;43.50
3408;DHT22;1717;50.240;8.406;2023-07-20T15:36:23;27.00;43.50
3408;DHT22;1717;50.240;8.406;2023-07-20T15:38:50;27.10;43.50
3408;DHT22;1717;50.240;8.406;2023-07-20T15:41:17;27.10;43.50
3408;DHT22;1717;50.240;8.406;2023-07-20T15:43:44;27.30;43.40
3408;DHT22;1717;50.240;8.406;2023-07-20T15:49:20;27.30;43.00
3408;DHT22;1717;50.240;8.406;2023-07-20T15:51:47;27.30;43.00
3408;DHT22;1717;50.240;8.406;2023-07-20T15:54:15;27.30;42.90
3408;DHT22;1717;50.240;8.406;2023-07-20T15:56:44;27.30;43.00
3408;DHT22;1717;50.240;8.406;2023-07-20T15:59:15;27.20;43.00
3408;DHT22;1717;50.240;8.406;2023-07-20T16:01:43;27.10;42.80
3408;DHT22;1717;50.240;8.406;2023-07-20T16:04:11;27.10;42.90
3408;DHT22;1717;50.240;8.406;2023-07-20T16:06:40;27.00;42.90
3408;DHT22;1717;50.240;8.406;2023-07-20T16:09:07;26.90;42.80
3408;DHT22;1717;50.240;8.406;2023-07-20T16:11:35;26.90;42.90
3408;DHT22;1717;50.240;8.406;2023-07-20T16:14:02;26.90;43.10
3408;DHT22;1717;50.240;8.406;2023-07-20T16:16:30;26.80;43.10
3408;DHT22;1717;50.240;8.406;2023-07-20T16:18:57;26.70;43.10
3408;DHT22;1717;50.240;8.406;2023-07-20T16:21:26;26.70;43.20
3408;DHT22;1717;50.240;8.406;2023-07-20T16:23:55;26.60;43.20
3408;DHT22;1717;50.240;8.406;2023-07-20T16:26:22;26.50;43.20
3408;DHT22;1717;50.240;8.406;2023-07-20T16:28:54;26.50;43.20
3408;DHT22;1717;50.240;8.406;2023-07-20T16:31:21;26.40;43.30